Terminal Aerodrome Forecast
Issued by NWS

Home | Current Version | Previous Version | Text Only | Print | Product List | Glossary On
Versions: 1 2 3 4 5 6 7 8 9 10 11 12 13 14 15 16 17 18 19 20 21 22 23 24 25 26
000
FTUS45 KREV 161700
TAFTVL
TAF
KTVL 161720Z 1618/1718 20012G22KT P6SM SCT060
     FM170300 19005KT P6SM SCT180
     FM171600 19010G18KT P6SM SCT180=

USA.gov is the U.S. government's official web portal to all federal, state and local government web resources and services.